Time;durP1;ratioP1;P1;durP2;ratioP2;P2;SDS_P1;SDS_P2;PMS_P1;PMS_P2;Temp;Humidity;BMP_temperature;BMP_pressure;BME280_temperature;BME280_humidity;BME280_pressure;Samples;Min_cycle;Max_cycle;Signal;HPM_P1;HPM_P2
2023/11/25 00:01:53;;;;;;;3.17;1.27;;;;;;;3.12;64.79;99264.78;10519878;28;20112;-64
2023/11/25 00:06:55;;;;;;;1.38;1.10;;;;;;;3.05;64.10;99268.50;10520108;28;20048;-64
2023/11/25 00:11:58;;;;;;;2.33;1.00;;;;;;;3.10;64.42;99279.50;10519378;28;20052;-64
2023/11/25 00:17:00;;;;;;;1.60;1.02;;;;;;;3.05;64.43;99278.84;10519008;28;20583;-64
2023/11/25 00:22:02;;;;;;;2.30;1.35;;;;;;;2.93;64.28;99293.09;10498837;28;20556;-64
2023/11/25 00:27:04;;;;;;;2.97;1.88;;;;;;;2.85;64.42;99305.47;10518473;28;20431;-63
2023/11/25 00:32:07;;;;;;;1.70;1.10;;;;;;;2.79;64.39;99316.03;10499392;28;20138;-64
2023/11/25 00:37:09;;;;;;;2.70;1.50;;;;;;;2.67;64.19;99321.66;10518084;28;20039;-64
2023/11/25 00:42:11;;;;;;;2.90;1.38;;;;;;;2.68;64.65;99328.47;10517004;28;20120;-63
2023/11/25 00:47:13;;;;;;;0.95;0.90;;;;;;;2.57;64.62;99320.31;10518333;28;20040;-64
2023/11/25 00:52:17;;;;;;;2.38;1.65;;;;;;;2.48;64.53;99330.97;10499535;28;20051;-64
2023/11/25 00:57:19;;;;;;;3.70;1.23;;;;;;;2.44;64.60;99342.28;10485041;28;20051;-63
2023/11/25 01:02:21;;;;;;;7.13;1.40;;;;;;;2.44;64.57;99344.88;10516564;28;20048;-64
2023/11/25 01:07:23;;;;;;;1.45;1.35;;;;;;;2.31;64.43;99360.84;10498878;28;20051;-64
2023/11/25 01:12:26;;;;;;;11.85;1.63;;;;;;;2.16;64.99;99370.81;10498324;28;20048;-63
2023/11/25 01:17:29;;;;;;;1.73;1.15;;;;;;;2.21;64.78;99374.06;10481595;28;20060;-64
2023/11/25 01:22:32;;;;;;;3.70;1.10;;;;;;;2.17;64.80;99379.41;10515561;28;20048;-64
2023/11/25 01:27:35;;;;;;;4.57;1.73;;;;;;;2.15;65.10;99384.59;10513785;28;20044;-64
2023/11/25 01:32:37;;;;;;;2.03;1.30;;;;;;;2.27;65.06;99396.25;10494589;28;20162;-63
2023/11/25 01:37:39;;;;;;;3.72;1.13;;;;;;;2.38;64.87;99401.88;10515448;28;20168;-64
2023/11/25 01:42:42;;;;;;;1.17;0.95;;;;;;;2.43;64.71;99404.28;10492157;28;20047;-64
2023/11/25 01:47:44;;;;;;;1.38;1.10;;;;;;;2.58;64.78;99419.25;10515945;28;20102;-64
2023/11/25 01:52:49;;;;;;;2.28;1.23;;;;;;;2.68;64.23;99430.94;10497690;28;20043;-63
2023/11/25 01:57:51;;;;;;;1.33;0.80;;;;;;;2.49;64.04;99438.47;10498106;28;20127;-64
2023/11/25 02:02:57;;;;;;;2.15;1.20;;;;;;;2.78;64.29;99448.63;10495800;28;20079;-64
2023/11/25 02:07:59;;;;;;;5.30;1.70;;;;;;;2.66;63.90;99443.88;10510799;28;20044;-64
2023/11/25 02:13:02;;;;;;;5.40;1.17;;;;;;;2.89;63.99;99451.66;10496565;28;20496;-64
2023/11/25 02:18:04;;;;;;;2.25;1.30;;;;;;;3.09;64.03;99457.84;10514764;28;20038;-64
2023/11/25 02:23:22;;;;;;;3.53;1.00;;;;;;;3.11;63.90;99454.28;10496098;28;20050;-64
2023/11/25 02:28:24;;;;;;;6.40;1.73;;;;;;;3.05;63.71;99452.75;10514322;28;20056;-63
2023/11/25 02:33:32;;;;;;;2.08;1.23;;;;;;;3.20;63.42;99442.75;10496154;28;20454;-64
2023/11/25 02:38:34;;;;;;;2.53;1.40;;;;;;;3.18;63.30;99437.66;10515115;28;20482;-64
2023/11/25 02:43:36;;;;;;;2.20;1.42;;;;;;;3.41;63.14;99434.19;10478066;28;20075;-64
2023/11/25 02:48:39;;;;;;;1.70;1.13;;;;;;;3.38;62.98;99439.47;10514615;28;20043;-63
2023/11/25 02:53:41;;;;;;;1.92;1.20;;;;;;;3.43;62.79;99440.16;10496070;28;20060;-63
2023/11/25 02:58:43;;;;;;;5.78;1.40;;;;;;;3.31;62.95;99449.22;10496638;28;20044;-64
2023/11/25 03:03:48;;;;;;;2.60;1.60;;;;;;;3.31;62.73;99458.72;10517998;28;20097;-63
2023/11/25 03:08:50;;;;;;;2.10;1.40;;;;;;;3.26;62.87;99463.19;10504980;28;20397;-63
2023/11/25 03:13:54;;;;;;;3.17;1.80;;;;;;;3.38;62.75;99454.97;10521497;28;20056;-63
2023/11/25 03:18:56;;;;;;;2.13;1.40;;;;;;;3.38;62.75;99466.16;10499233;28;20033;-64
2023/11/25 03:23:59;;;;;;;2.00;1.38;;;;;;;3.44;62.69;99463.34;10485298;28;20106;-64
2023/11/25 03:29:02;;;;;;;2.83;1.70;;;;;;;3.35;62.63;99463.72;10521230;28;20040;-64
2023/11/25 03:34:04;;;;;;;2.78;1.88;;;;;;;3.56;62.51;99454.25;10520542;28;20116;-64
2023/11/25 03:39:09;;;;;;;2.15;1.35;;;;;;;3.62;62.54;99459.22;10519753;28;20047;-63
2023/11/25 03:44:12;;;;;;;2.78;1.60;;;;;;;3.59;62.60;99465.34;10499578;28;20401;-64
2023/11/25 03:49:14;;;;;;;7.65;2.10;;;;;;;3.65;62.52;99451.34;10520274;28;20040;-64
2023/11/25 03:54:16;;;;;;;3.78;1.88;;;;;;;3.64;62.33;99468.59;10501634;28;20101;-64
2023/11/25 03:59:18;;;;;;;4.50;1.90;;;;;;;3.60;62.60;99453.28;10520542;28;20135;-64
2023/11/25 04:04:19;;;;;;;5.10;2.10;;;;;;;3.52;62.75;99453.56;10482939;28;20633;-64
2023/11/25 04:09:23;;;;;;;6.38;2.33;;;;;;;3.53;62.66;99449.22;10519335;28;20496;-64
2023/11/25 04:14:25;;;;;;;3.47;1.92;;;;;;;3.38;63.01;99452.41;10499400;28;20222;-63
2023/11/25 04:19:27;;;;;;;4.40;2.03;;;;;;;3.41;62.86;99455.72;10519439;28;20097;-64
2023/11/25 04:24:29;;;;;;;6.65;3.22;;;;;;;3.33;62.95;99456.91;10518228;28;20044;-63
2023/11/25 04:29:35;;;;;;;9.38;2.00;;;;;;;3.24;63.09;99457.25;10484068;28;20036;-64
2023/11/25 04:34:37;;;;;;;5.05;1.88;;;;;;;3.10;63.47;99460.34;10518278;28;20146;-64
2023/11/25 04:39:39;;;;;;;5.88;2.10;;;;;;;3.13;63.68;99480.06;10518738;28;20044;-63
2023/11/25 04:44:41;;;;;;;2.22;1.50;;;;;;;3.24;63.45;99462.41;10482516;28;20056;-63
2023/11/25 04:49:43;;;;;;;4.03;1.90;;;;;;;3.15;63.60;99467.94;10500123;28;20068;-63
2023/11/25 04:54:46;;;;;;;6.35;2.70;;;;;;;3.35;63.32;99465.44;10516802;28;20829;-64
2023/11/25 04:59:48;;;;;;;5.82;2.90;;;;;;;3.33;63.37;99468.09;10518348;28;20048;-63
2023/11/25 05:04:50;;;;;;;4.03;1.95;;;;;;;3.44;63.23;99465.94;10516681;28;20054;-63
2023/11/25 05:09:52;;;;;;;7.55;3.25;;;;;;;3.38;63.34;99454.97;10517510;28;20134;-63
2023/11/25 05:14:54;;;;;;;10.35;2.25;;;;;;;3.34;63.32;99458.59;10516357;28;20918;-63
2023/11/25 05:19:56;;;;;;;3.67;1.90;;;;;;;3.39;63.24;99462.69;10517261;28;20044;-63
2023/11/25 05:24:59;;;;;;;6.55;2.38;;;;;;;3.46;63.24;99458.13;10515199;28;20415;-64
2023/11/25 05:30:01;;;;;;;4.82;2.20;;;;;;;3.60;62.99;99455.88;10516966;28;20048;-63
2023/11/25 05:35:06;;;;;;;7.72;2.70;;;;;;;3.69;62.72;99447.72;10516275;28;20152;-63
2023/11/25 05:40:11;;;;;;;8.30;2.72;;;;;;;3.76;62.64;99456.94;10515645;28;20050;-63
2023/11/25 05:45:13;;;;;;;8.68;2.22;;;;;;;3.71;62.80;99454.53;10497267;28;20048;-63
2023/11/25 05:50:19;;;;;;;6.95;2.13;;;;;;;3.51;62.66;99445.88;10516595;28;20400;-63
2023/11/25 05:55:22;;;;;;;5.78;1.63;;;;;;;3.45;62.65;99440.94;10515299;28;20063;-63
2023/11/25 06:00:24;;;;;;;9.75;2.22;;;;;;;3.54;62.77;99433.66;10516074;28;20514;-64
2023/11/25 06:05:27;;;;;;;4.43;1.92;;;;;;;3.41;62.97;99435.03;10513783;28;20093;-63
2023/11/25 06:10:29;;;;;;;5.30;2.13;;;;;;;3.45;63.13;99430.59;10497665;28;20101;-63
2023/11/25 06:15:31;;;;;;;8.07;1.88;;;;;;;3.44;63.14;99437.50;10515076;28;20056;-63
2023/11/25 06:20:34;;;;;;;3.35;1.67;;;;;;;3.50;63.15;99429.50;10514928;28;20043;-64
2023/11/25 06:25:36;;;;;;;9.15;2.13;;;;;;;3.54;62.92;99425.91;10513827;28;20684;-64
2023/11/25 06:30:39;;;;;;;6.43;2.03;;;;;;;3.57;62.86;99428.38;10496415;28;20546;-64
2023/11/25 06:35:41;;;;;;;3.55;1.92;;;;;;;3.52;62.92;99426.84;10515038;28;20068;-63
2023/11/25 06:40:43;;;;;;;2.45;1.60;;;;;;;3.57;63.15;99414.59;10521350;28;20040;-64
2023/11/25 06:45:45;;;;;;;5.53;2.53;;;;;;;3.61;62.97;99431.69;10522659;28;20044;-63
2023/11/25 06:50:47;;;;;;;3.33;2.00;;;;;;;3.64;62.96;99431.56;10503233;28;20047;-63
2023/11/25 06:55:49;;;;;;;10.38;1.90;;;;;;;3.68;62.86;99435.72;10520640;28;20044;-64
2023/11/25 07:00:51;;;;;;;3.70;1.48;;;;;;;3.60;63.12;99430.81;10504455;28;20060;-64
2023/11/25 07:05:53;;;;;;;4.68;1.60;;;;;;;3.52;63.37;99426.84;10521657;28;20090;-63
2023/11/25 07:10:58;;;;;;;4.43;1.95;;;;;;;3.56;63.44;99434.44;10522203;28;20048;-64
2023/11/25 07:16:02;;;;;;;4.25;1.55;;;;;;;3.61;63.37;99442.88;10450794;28;20121;-64
2023/11/25 07:21:04;;;;;;;7.22;2.13;;;;;;;3.67;63.48;99441.78;10438449;28;20132;-64
2023/11/25 07:26:06;;;;;;;5.13;2.10;;;;;;;3.72;63.11;99434.69;10436720;28;20048;-64
2023/11/25 07:31:11;;;;;;;3.58;2.15;;;;;;;3.64;63.34;99432.38;10436495;28;20511;-64
2023/11/25 07:36:13;;;;;;;4.82;2.13;;;;;;;3.75;63.20;99419.03;10434647;28;20075;-64
2023/11/25 07:41:16;;;;;;;6.88;1.80;;;;;;;3.79;63.11;99412.84;10437063;28;20055;-63
2023/11/25 07:46:18;;;;;;;6.82;2.50;;;;;;;3.71;62.94;99407.13;10436270;28;20041;-64
2023/11/25 07:51:20;;;;;;;6.10;2.35;;;;;;;3.64;62.94;99414.28;10437234;28;20045;-63
2023/11/25 07:56:22;;;;;;;3.15;2.00;;;;;;;3.53;63.27;99421.66;10436657;28;20049;-64
2023/11/25 08:01:24;;;;;;;5.63;1.63;;;;;;;3.45;63.56;99417.66;10436269;28;20045;-64
2023/11/25 08:06:26;;;;;;;2.92;1.80;;;;;;;3.48;63.36;99423.56;10435722;28;20132;-64
2023/11/25 08:11:29;;;;;;;10.20;2.25;;;;;;;3.60;63.17;99427.44;10435170;28;20052;-63
2023/11/25 08:16:31;;;;;;;7.55;2.30;;;;;;;3.63;63.31;99430.72;10499393;28;20479;-64
2023/11/25 08:21:33;;;;;;;9.27;1.35;;;;;;;3.83;63.23;99437.66;10518547;28;20044;-63
2023/11/25 08:26:35;;;;;;;7.07;1.83;;;;;;;4.01;63.21;99428.34;10499895;28;20059;-64
2023/11/25 08:31:38;;;;;;;4.20;2.45;;;;;;;4.02;63.34;99432.63;10518979;28;20074;-64
2023/11/25 08:36:52;;;;;;;7.45;1.88;;;;;;;4.17;63.13;99432.00;10518330;28;20126;-64
2023/11/25 08:41:57;;;;;;;9.07;1.95;;;;;;;4.20;63.14;99431.88;10517864;28;20056;-64
2023/11/25 08:46:59;;;;;;;4.57;1.63;;;;;;;4.28;63.18;99433.22;10498053;28;20040;-64
2023/11/25 08:52:02;;;;;;;6.70;2.10;;;;;;;4.12;63.48;99431.34;10486013;28;20073;-65
2023/11/25 08:57:07;;;;;;;3.95;1.90;;;;;;;4.07;63.67;99435.88;10481461;28;20059;-64
2023/11/25 09:08:06;;;;;;;6.80;2.47;;;;;;;4.34;63.48;99417.44;10475135;28;20564;-76
2023/11/25 09:13:10;;;;;;;5.15;2.42;;;;;;;4.48;63.39;99417.69;10447183;28;20382;-76
2023/11/25 09:18:12;;;;;;;2.45;1.65;;;;;;;4.61;63.38;99418.00;10440602;22;20045;-63
2023/11/25 09:23:15;;;;;;;4.45;1.88;;;;;;;4.51;63.49;99407.22;10431104;28;20045;-63
2023/11/25 09:28:19;;;;;;;4.93;1.30;;;;;;;4.58;63.34;99411.19;10415431;28;20052;-63
2023/11/25 09:33:23;;;;;;;5.93;1.95;;;;;;;4.74;62.97;99395.00;10431486;28;20045;-63
2023/11/25 09:38:25;;;;;;;3.63;1.38;;;;;;;4.80;62.92;99394.72;10429426;28;20047;-63
2023/11/25 09:43:29;;;;;;;5.03;2.60;;;;;;;4.78;62.76;99404.31;10430237;28;20061;-63
2023/11/25 09:48:33;;;;;;;2.78;1.60;;;;;;;4.66;62.80;99406.53;10430538;28;20049;-63
2023/11/25 09:53:37;;;;;;;5.35;2.22;;;;;;;4.52;63.33;99402.84;10430189;28;20048;-65
2023/11/25 09:58:47;;;;;;;;;;;;;;;4.61;62.99;99390.38;10430587;28;20067;-65
2023/11/25 10:03:51;;;;;;;5.53;1.33;;;;;;;4.96;62.56;99387.94;10446989;28;19924;-65
2023/11/25 10:08:53;;;;;;;2.88;1.30;;;;;;;4.95;62.69;99397.47;10426848;28;20557;-65
2023/11/25 10:13:56;;;;;;;4.40;1.38;;;;;;;5.04;62.55;99393.63;10416861;28;20186;-65
2023/11/25 10:18:58;;;;;;;6.90;1.83;;;;;;;5.17;62.60;99395.56;10435828;28;20045;-65
2023/11/25 10:24:08;;;;;;;6.78;2.17;;;;;;;5.23;61.82;99377.13;10437415;28;20049;-65
2023/11/25 10:29:13;;;;;;;2.20;1.20;;;;;;;5.42;61.90;99366.72;10435474;28;20037;-65
2023/11/25 10:34:15;;;;;;;2.45;1.17;;;;;;;5.29;61.56;99360.44;10427655;28;20041;-66
2023/11/25 10:39:18;;;;;;;3.60;1.42;;;;;;;5.42;61.92;99358.94;10433730;28;20124;-65
2023/11/25 10:44:20;;;;;;;1.60;1.10;;;;;;;5.46;61.58;99352.72;10418305;28;20045;-66
2023/11/25 10:49:23;;;;;;;4.22;1.23;;;;;;;5.37;62.03;99346.19;10429760;28;20045;-65
2023/11/25 10:54:31;;;;;;;3.63;1.33;;;;;;;5.36;62.12;99343.69;10429192;28;20075;-65
2023/11/25 10:59:39;;;;;;;2.13;1.27;;;;;;;5.48;62.23;99345.69;10435138;28;20049;-66
2023/11/25 11:04:48;;;;;;;3.15;1.40;;;;;;;5.33;62.11;99344.66;10448648;28;20053;-65
2023/11/25 11:09:56;;;;;;;2.40;0.90;;;;;;;5.40;62.17;99337.44;10430268;28;20540;-65
2023/11/25 11:15:10;;;;;;;2.90;0.98;;;;;;;5.31;62.20;99330.13;10430918;28;20127;-65
2023/11/25 11:20:12;;;;;;;2.53;1.00;;;;;;;5.56;62.20;99312.44;10398594;28;20093;-65
2023/11/25 11:25:31;;;;;;;1.40;0.85;;;;;;;5.68;62.01;99314.44;10412877;28;20095;-65
2023/11/25 11:30:57;;;;;;;2.15;1.75;;;;;;;5.85;61.56;99304.06;10433161;28;20053;-65
2023/11/25 11:36:05;;;;;;;1.67;1.08;;;;;;;5.95;61.39;99302.69;10433527;28;20461;-65
2023/11/25 11:41:15;;;;;;;1.67;0.63;;;;;;;5.95;61.52;99294.88;10417372;28;20116;-65
2023/11/25 11:46:18;;;;;;;2.10;1.02;;;;;;;5.89;61.85;99294.34;10416078;28;20041;-65
2023/11/25 11:51:23;;;;;;;1.40;0.80;;;;;;;5.63;62.04;99274.91;10410877;28;20045;-65
2023/11/25 11:57:04;;;;;;;3.88;1.20;;;;;;;5.46;62.19;99277.50;10434755;28;20134;-66
2023/11/25 12:02:06;;;;;;;1.33;0.80;;;;;;;5.58;61.64;99271.72;10434883;28;20052;-65
2023/11/25 12:07:08;;;;;;;2.83;1.25;;;;;;;5.64;61.35;99261.03;10433313;28;20048;-66
2023/11/25 12:12:11;;;;;;;6.47;1.88;;;;;;;5.55;61.46;99274.47;10431409;28;20385;-65
2023/11/25 12:17:13;;;;;;;2.20;1.30;;;;;;;5.58;61.34;99269.09;10431373;28;20060;-65
2023/11/25 12:22:15;;;;;;;4.00;1.73;;;;;;;5.63;61.47;99267.13;10417800;28;20515;-65
2023/11/25 12:27:18;;;;;;;3.55;1.58;;;;;;;5.72;61.15;99264.06;10413285;28;20056;-65
2023/11/25 12:32:20;;;;;;;3.70;1.75;;;;;;;5.54;60.64;99265.84;10434657;28;20404;-65
2023/11/25 12:37:22;;;;;;;5.90;1.70;;;;;;;5.56;61.10;99265.75;10429965;28;20052;-65
2023/11/25 12:42:24;;;;;;;2.75;1.20;;;;;;;5.64;60.80;99255.84;10428908;28;20052;-65
2023/11/25 12:47:28;;;;;;;1.33;1.20;;;;;;;5.79;60.82;99236.06;10425471;28;20140;-65
2023/11/25 12:52:30;;;;;;;4.80;1.38;;;;;;;6.07;60.61;99238.91;10432059;28;20107;-65
2023/11/25 12:57:32;;;;;;;1.98;1.58;;;;;;;6.23;59.62;99230.22;10429795;28;20429;-65
2023/11/25 13:02:35;;;;;;;2.20;1.10;;;;;;;6.20;60.02;99243.38;10427036;28;20078;-65
2023/11/25 13:07:37;;;;;;;3.08;1.00;;;;;;;6.28;59.95;99236.06;10426552;28;20040;-66
2023/11/25 13:12:39;;;;;;;1.38;0.70;;;;;;;6.35;60.34;99241.75;10424129;28;20445;-66
2023/11/25 13:17:42;;;;;;;1.67;1.00;;;;;;;6.31;60.62;99246.28;10423590;28;20262;-66
2023/11/25 13:22:45;;;;;;;1.13;0.80;;;;;;;6.23;60.67;99239.75;10417870;28;20075;-65
2023/11/25 13:27:47;;;;;;;2.67;1.15;;;;;;;6.11;61.27;99256.00;10411498;28;20857;-65
2023/11/25 13:32:52;;;;;;;3.28;1.52;;;;;;;5.94;61.62;99246.47;10397063;28;20060;-66
2023/11/25 13:38:01;;;;;;;3.97;1.30;;;;;;;5.79;61.56;99242.09;10402369;28;20040;-66
2023/11/25 13:43:04;;;;;;;2.10;1.10;;;;;;;5.92;61.74;99243.13;10422831;28;20415;-66
2023/11/25 13:48:07;;;;;;;1.92;1.30;;;;;;;6.02;61.62;99244.31;10443687;28;20049;-66
2023/11/25 13:53:09;;;;;;;2.20;0.90;;;;;;;5.89;62.13;99237.25;10411750;28;20665;-66
2023/11/25 13:58:12;;;;;;;1.35;1.10;;;;;;;5.80;62.35;99241.16;10428931;28;20056;-66
2023/11/25 14:03:14;;;;;;;0.85;0.80;;;;;;;5.66;62.48;99247.97;10429855;28;20203;-65
2023/11/25 14:08:18;;;;;;;2.78;1.20;;;;;;;5.69;62.41;99250.41;10428696;28;20049;-65
2023/11/25 14:13:21;;;;;;;1.02;0.98;;;;;;;5.66;62.95;99247.97;10430192;28;20487;-65
2023/11/25 14:18:23;;;;;;;0.77;0.75;;;;;;;5.66;62.73;99260.94;10426003;28;20045;-66
2023/11/25 14:23:25;;;;;;;2.45;0.90;;;;;;;5.64;62.54;99265.38;10412499;28;20049;-65
2023/11/25 14:28:27;;;;;;;1.88;1.10;;;;;;;5.60;63.18;99262.09;10427696;28;20049;-66
2023/11/25 14:33:29;;;;;;;2.42;1.25;;;;;;;5.54;63.17;99252.03;10429035;28;20063;-65
2023/11/25 14:38:31;;;;;;;3.85;1.75;;;;;;;5.44;63.69;99246.47;10429333;28;20874;-65
2023/11/25 14:43:33;;;;;;;4.25;1.52;;;;;;;5.41;63.93;99256.97;10430127;28;20049;-66
2023/11/25 14:48:35;;;;;;;3.72;1.38;;;;;;;5.39;64.09;99245.84;10429594;28;20448;-66
2023/11/25 14:53:40;;;;;;;2.22;1.30;;;;;;;5.27;64.75;99238.66;10444176;28;20049;-65
2023/11/25 14:58:42;;;;;;;3.53;1.70;;;;;;;5.27;64.78;99243.84;10432286;28;20896;-65
2023/11/25 15:03:44;;;;;;;2.63;1.50;;;;;;;5.36;64.44;99227.00;10435214;28;20041;-66
2023/11/25 15:08:46;;;;;;;2.60;1.60;;;;;;;5.14;65.59;99236.75;10437647;28;20481;-65
2023/11/25 15:13:48;;;;;;;6.72;2.05;;;;;;;5.20;65.31;99239.06;10436283;28;20063;-65
2023/11/25 15:18:51;;;;;;;4.05;1.90;;;;;;;5.21;65.15;99233.78;10436978;28;20199;-65
2023/11/25 15:23:53;;;;;;;2.42;1.20;;;;;;;5.25;65.11;99240.50;10437336;28;20132;-65
2023/11/25 15:28:55;;;;;;;3.45;1.98;;;;;;;5.34;64.95;99237.47;10436579;28;20047;-66
2023/11/25 15:33:57;;;;;;;5.60;2.03;;;;;;;5.38;64.78;99235.56;10436458;28;20400;-65
2023/11/25 15:38:59;;;;;;;5.07;1.75;;;;;;;5.38;64.75;99240.75;10414283;28;20049;-65
2023/11/25 15:44:01;;;;;;;2.13;1.60;;;;;;;5.39;64.88;99258.00;10419039;28;20201;-65
2023/11/25 15:49:03;;;;;;;2.78;1.40;;;;;;;5.34;65.22;99281.53;10417753;28;20052;-66
2023/11/25 15:54:05;;;;;;;2.63;1.17;;;;;;;4.99;66.35;99263.41;10434320;28;20045;-66
2023/11/25 15:59:08;;;;;;;1.10;1.00;;;;;;;5.00;65.89;99259.91;10417154;28;20037;-66
2023/11/25 16:04:11;;;;;;;3.63;1.25;;;;;;;5.00;65.63;99265.09;10436279;28;20051;-63
2023/11/25 16:09:14;;;;;;;2.75;1.35;;;;;;;4.89;65.60;99257.81;10432854;28;20048;-64
2023/11/25 16:14:16;;;;;;;5.05;1.40;;;;;;;4.79;65.88;99272.13;10435492;28;20048;-64
2023/11/25 16:19:18;;;;;;;6.63;2.25;;;;;;;4.75;65.94;99269.75;10416447;28;20501;-64
2023/11/25 16:24:21;;;;;;;4.30;2.20;;;;;;;4.74;65.70;99273.25;10433631;28;20041;-63
2023/11/25 16:29:23;;;;;;;5.88;1.90;;;;;;;4.74;65.61;99279.25;10434818;28;20474;-64
2023/11/25 16:34:26;;;;;;;4.45;1.58;;;;;;;4.65;65.91;99288.31;10435934;28;20154;-63
2023/11/25 16:39:28;;;;;;;1.95;1.00;;;;;;;4.63;65.61;99286.69;10433803;28;20055;-64
2023/11/25 16:44:30;;;;;;;2.45;1.45;;;;;;;4.64;65.89;99294.38;10435171;28;20126;-64
2023/11/25 16:49:32;;;;;;;0.95;0.85;;;;;;;4.72;65.72;99291.44;10435269;28;20045;-63
2023/11/25 16:54:42;;;;;;;3.83;1.37;;;;;;;4.74;65.88;99288.81;10434011;28;20049;-63
2023/11/25 16:59:44;;;;;;;1.35;1.00;;;;;;;4.88;65.83;99296.78;10433829;28;20488;-63
2023/11/25 17:04:46;;;;;;;3.13;1.38;;;;;;;4.98;65.70;99287.66;10433789;28;20056;-63
2023/11/25 17:09:49;;;;;;;2.95;1.30;;;;;;;5.00;65.70;99288.41;10432662;28;20284;-64
2023/11/25 17:14:51;;;;;;;2.28;1.10;;;;;;;5.17;65.82;99294.47;10432562;28;20574;-63
2023/11/25 17:19:53;;;;;;;1.50;1.10;;;;;;;5.19;65.49;99292.63;10432411;28;20412;-63
2023/11/25 17:24:55;;;;;;;5.13;1.58;;;;;;;5.01;65.96;99308.22;10414614;28;20045;-63
2023/11/25 17:29:57;;;;;;;1.90;1.40;;;;;;;5.20;65.32;99303.84;10430963;28;20106;-63
2023/11/25 17:34:59;;;;;;;2.03;1.50;;;;;;;5.12;65.45;99305.97;10414746;28;20114;-63
2023/11/25 17:40:03;;;;;;;4.82;1.65;;;;;;;5.07;65.66;99303.59;10431781;28;20041;-63
2023/11/25 17:45:06;;;;;;;2.30;1.25;;;;;;;5.03;65.63;99312.44;10431292;28;20048;-63
2023/11/25 17:50:09;;;;;;;1.98;1.25;;;;;;;5.00;66.36;99325.53;10432274;28;20514;-63
2023/11/25 17:55:11;;;;;;;1.73;1.30;;;;;;;5.18;65.65;99329.84;10423916;28;20045;-63
2023/11/25 18:00:14;;;;;;;2.90;1.50;;;;;;;5.14;66.01;99340.44;10424550;28;20064;-64
2023/11/25 18:05:16;;;;;;;4.25;1.70;;;;;;;5.18;66.20;99347.16;10422353;28;20485;-63
2023/11/25 18:10:18;;;;;;;1.98;1.38;;;;;;;5.15;66.17;99347.28;10428621;28;20045;-63
2023/11/25 18:15:22;;;;;;;2.67;1.50;;;;;;;5.20;66.30;99353.09;10412344;28;20044;-63
2023/11/25 18:20:24;;;;;;;3.45;1.77;;;;;;;5.31;66.09;99359.47;10433066;28;20101;-64
2023/11/25 18:25:26;;;;;;;4.45;1.65;;;;;;;5.42;66.09;99364.13;10431982;28;20136;-63
2023/11/25 18:30:28;;;;;;;1.40;1.00;;;;;;;4.79;65.75;99388.69;10423440;28;20126;-64
2023/11/25 18:35:30;;;;;;;0.75;0.73;;;;;;;4.28;65.51;99404.75;10431180;28;20049;-63
2023/11/25 18:40:32;;;;;;;0.80;0.80;;;;;;;3.93;66.47;99423.50;10437372;28;20072;-64
2023/11/25 18:45:35;;;;;;;0.73;0.70;;;;;;;3.89;66.45;99447.81;10438291;28;20055;-63
2023/11/25 18:50:37;;;;;;;2.03;1.00;;;;;;;3.93;66.31;99454.53;10401456;28;20196;-64
2023/11/25 18:55:40;;;;;;;1.33;0.80;;;;;;;3.94;65.90;99439.88;10432025;28;20047;-63
2023/11/25 19:00:42;;;;;;;1.83;0.88;;;;;;;3.89;65.55;99440.03;10409595;28;20052;-64
2023/11/25 19:05:46;;;;;;;0.63;0.63;;;;;;;3.78;65.66;99447.38;10416973;28;20055;-64
2023/11/25 19:10:49;;;;;;;1.73;1.00;;;;;;;3.88;65.50;99465.06;10435150;28;20045;-63
2023/11/25 19:15:51;;;;;;;1.13;1.02;;;;;;;3.85;65.59;99478.13;10435881;28;20420;-64
2023/11/25 19:20:53;;;;;;;2.28;1.10;;;;;;;3.77;65.26;99484.47;10433522;28;20041;-63
2023/11/25 19:25:55;;;;;;;1.48;0.93;;;;;;;3.60;65.18;99481.72;10419385;28;20103;-63
2023/11/25 19:30:57;;;;;;;2.53;1.30;;;;;;;3.42;65.44;99492.72;10432545;28;20120;-63
2023/11/25 19:35:59;;;;;;;1.27;1.00;;;;;;;3.23;65.80;99489.16;10436281;28;20516;-64
2023/11/25 19:41:01;;;;;;;0.85;0.70;;;;;;;3.07;66.26;99511.31;10432619;28;20492;-63
2023/11/25 19:46:04;;;;;;;1.80;1.05;;;;;;;2.91;66.64;99523.91;10436291;28;20053;-64
2023/11/25 19:51:07;;;;;;;1.55;1.30;;;;;;;2.90;66.59;99529.97;10433192;28;20047;-64
2023/11/25 19:56:10;;;;;;;1.13;0.90;;;;;;;2.81;66.88;99535.44;10427447;28;20049;-63
2023/11/25 20:01:12;;;;;;;0.80;0.80;;;;;;;2.77;66.90;99545.03;10435575;28;20524;-64
2023/11/25 20:06:14;;;;;;;1.65;0.82;;;;;;;2.79;66.80;99557.91;10406961;28;20041;-63
2023/11/25 20:11:16;;;;;;;1.83;0.85;;;;;;;2.80;66.98;99567.34;10427493;28;20123;-64
2023/11/25 20:16:19;;;;;;;2.33;1.00;;;;;;;2.80;66.71;99572.50;10428430;28;20709;-63
2023/11/25 20:21:22;;;;;;;0.60;0.60;;;;;;;2.84;66.70;99581.84;10410577;28;20552;-63
2023/11/25 20:26:24;;;;;;;1.08;0.93;;;;;;;2.85;66.41;99588.69;10432663;28;20450;-63
2023/11/25 20:31:26;;;;;;;1.98;0.95;;;;;;;2.81;66.69;99592.25;10430518;28;20064;-63
2023/11/25 20:36:28;;;;;;;2.15;1.45;;;;;;;2.78;66.58;99590.66;10428585;28;20496;-63
2023/11/25 20:41:30;;;;;;;1.27;1.17;;;;;;;2.71;66.72;99601.22;10431680;28;20141;-63
2023/11/25 20:46:32;;;;;;;4.07;1.52;;;;;;;2.67;66.70;99608.22;10431456;28;20051;-64
2023/11/25 20:51:34;;;;;;;1.73;1.00;;;;;;;2.63;66.71;99627.28;10430235;28;20068;-64
2023/11/25 20:56:37;;;;;;;2.38;1.50;;;;;;;2.60;66.77;99629.94;10424661;28;20496;-63
2023/11/25 21:01:39;;;;;;;4.63;1.75;;;;;;;2.47;66.90;99628.66;10430007;28;20065;-63
2023/11/25 21:06:41;;;;;;;5.18;1.85;;;;;;;2.31;66.61;99630.03;10431564;28;20040;-64
2023/11/25 21:11:43;;;;;;;2.72;1.48;;;;;;;2.15;67.13;99627.06;10411505;28;20041;-63
2023/11/25 21:16:45;;;;;;;1.23;0.95;;;;;;;2.14;67.31;99640.03;10393236;28;20153;-64
2023/11/25 21:21:49;;;;;;;2.33;1.58;;;;;;;2.13;67.18;99643.50;10430509;28;20090;-65
2023/11/25 21:26:51;;;;;;;1.23;0.90;;;;;;;2.11;67.54;99661.59;10427045;28;20057;-64
2023/11/25 21:31:53;;;;;;;1.75;1.00;;;;;;;2.10;67.29;99659.91;10429373;28;20045;-64
2023/11/25 21:36:55;;;;;;;1.52;1.17;;;;;;;2.09;67.54;99659.97;10429887;28;20048;-65
2023/11/25 21:41:57;;;;;;;1.83;1.10;;;;;;;2.01;67.43;99673.06;10431029;28;20323;-64
2023/11/25 21:47:02;;;;;;;1.40;1.10;;;;;;;1.98;67.49;99672.31;10430469;28;20128;-65
2023/11/25 21:52:07;;;;;;;1.40;1.10;;;;;;;1.96;67.46;99677.53;10427466;28;20132;-63
2023/11/25 21:57:09;;;;;;;3.13;1.45;;;;;;;1.95;67.29;99677.59;10429561;28;20049;-64
2023/11/25 22:02:12;;;;;;;3.63;2.15;;;;;;;2.01;67.64;99685.16;10431419;28;20045;-64
2023/11/25 22:07:14;;;;;;;2.50;1.50;;;;;;;2.12;67.36;99690.81;10413258;28;20365;-64
2023/11/25 22:12:16;;;;;;;2.67;1.70;;;;;;;2.09;67.30;99696.09;10407598;28;20397;-64
2023/11/25 22:17:19;;;;;;;1.80;1.20;;;;;;;2.05;66.95;99692.72;10431834;28;20060;-64
2023/11/25 22:22:21;;;;;;;1.60;1.10;;;;;;;1.94;67.03;99691.34;10432889;28;20076;-64
2023/11/25 22:27:25;;;;;;;1.50;1.13;;;;;;;1.79;67.09;99690.06;10430933;28;20041;-64
2023/11/25 22:32:27;;;;;;;3.40;1.65;;;;;;;1.71;67.13;99704.03;10429438;28;20524;-64
2023/11/25 22:37:29;;;;;;;2.00;1.40;;;;;;;1.62;67.29;99710.31;10431043;28;20521;-64
2023/11/25 22:42:31;;;;;;;3.15;1.10;;;;;;;1.61;67.65;99710.34;10430601;28;20061;-63
2023/11/25 22:47:33;;;;;;;2.05;1.05;;;;;;;1.67;67.81;99703.28;10414057;28;20051;-64
2023/11/25 22:52:35;;;;;;;1.30;1.02;;;;;;;1.73;67.57;99704.84;10430826;28;20052;-64
2023/11/25 22:57:37;;;;;;;3.25;1.10;;;;;;;1.68;67.79;99710.16;10430061;28;20056;-64
2023/11/25 23:02:39;;;;;;;1.45;1.20;;;;;;;1.70;67.97;99718.69;10413341;28;20144;-64
2023/11/25 23:07:41;;;;;;;1.58;1.10;;;;;;;1.83;67.63;99726.91;10430828;28;20033;-64
2023/11/25 23:12:43;;;;;;;1.67;1.17;;;;;;;2.04;67.82;99731.47;10443357;28;20542;-64
2023/11/25 23:17:45;;;;;;;2.75;1.48;;;;;;;2.22;67.43;99712.88;10429006;28;20063;-64
2023/11/25 23:22:48;;;;;;;4.15;1.40;;;;;;;2.10;67.17;99713.22;10437309;28;20438;-64
2023/11/25 23:27:50;;;;;;;2.05;1.42;;;;;;;2.02;67.51;99722.94;10416400;28;20088;-64
2023/11/25 23:32:52;;;;;;;2.40;1.33;;;;;;;2.09;67.32;99727.84;10435258;28;20043;-64
2023/11/25 23:37:54;;;;;;;4.53;1.95;;;;;;;2.33;67.58;99717.72;10436966;28;20382;-64
2023/11/25 23:42:57;;;;;;;1.67;1.20;;;;;;;2.50;66.99;99726.63;10435789;28;20053;-64
2023/11/25 23:47:59;;;;;;;2.50;1.55;;;;;;;2.63;67.08;99730.56;10437540;28;20408;-64
2023/11/25 23:53:01;;;;;;;2.58;1.40;;;;;;;2.62;66.51;99739.16;10419285;28;20075;-64